sensor_id;sensor_type;location;lat;lon;timestamp;P1;durP1;ratioP1;P2;durP2;ratioP2
69627;SDS011;56850;51.984;5.088;2023-03-01T00:01:02;9.77;;;6.83;;
69627;SDS011;56850;51.984;5.088;2023-03-01T00:03:32;9.15;;;7.00;;
69627;SDS011;56850;51.984;5.088;2023-03-01T00:06:00;9.60;;;6.43;;
69627;SDS011;56850;51.984;5.088;2023-03-01T00:08:27;10.38;;;7.00;;
69627;SDS011;56850;51.984;5.088;2023-03-01T00:11:04;8.57;;;6.10;;
69627;SDS011;56850;51.984;5.088;2023-03-01T00:13:40;9.33;;;6.90;;
69627;SDS011;56850;51.984;5.088;2023-03-01T00:16:13;11.10;;;7.13;;
69627;SDS011;56850;51.984;5.088;2023-03-01T00:18:42;10.50;;;6.90;;
69627;SDS011;56850;51.984;5.088;2023-03-01T00:21:09;9.45;;;6.50;;
69627;SDS011;56850;51.984;5.088;2023-03-01T00:23:36;9.93;;;7.07;;
69627;SDS011;56850;51.984;5.088;2023-03-01T00:26:11;7.83;;;6.77;;
69627;SDS011;56850;51.984;5.088;2023-03-01T00:28:40;10.02;;;6.70;;
69627;SDS011;56850;51.984;5.088;2023-03-01T00:31:13;10.82;;;6.75;;
69627;SDS011;56850;51.984;5.088;2023-03-01T00:33:48;11.32;;;6.90;;
69627;SDS011;56850;51.984;5.088;2023-03-01T00:36:19;11.23;;;6.22;;
69627;SDS011;56850;51.984;5.088;2023-03-01T00:38:47;8.83;;;6.60;;
69627;SDS011;56850;51.984;5.088;2023-03-01T00:41:15;9.77;;;6.72;;
69627;SDS011;56850;51.984;5.088;2023-03-01T00:43:43;10.07;;;6.60;;
69627;SDS011;56850;51.984;5.088;2023-03-01T00:46:11;8.77;;;6.63;;
69627;SDS011;56850;51.984;5.088;2023-03-01T00:48:41;8.02;;;6.63;;
69627;SDS011;56850;51.984;5.088;2023-03-01T00:51:08;8.93;;;7.13;;
69627;SDS011;56850;51.984;5.088;2023-03-01T00:53:39;7.80;;;6.38;;
69627;SDS011;56850;51.984;5.088;2023-03-01T00:56:06;7.85;;;6.35;;
69627;SDS011;56850;51.984;5.088;2023-03-01T00:58:36;9.05;;;6.72;;
69627;SDS011;56850;51.984;5.088;2023-03-01T01:01:10;8.57;;;6.35;;
69627;SDS011;56850;51.984;5.088;2023-03-01T01:06:29;10.65;;;6.22;;
69627;SDS011;56850;51.984;5.088;2023-03-01T01:09:02;8.05;;;6.50;;
69627;SDS011;56850;51.984;5.088;2023-03-01T01:11:30;9.10;;;6.88;;
69627;SDS011;56850;51.984;5.088;2023-03-01T01:13:58;8.27;;;6.50;;
69627;SDS011;56850;51.984;5.088;2023-03-01T01:16:25;10.17;;;6.20;;
69627;SDS011;56850;51.984;5.088;2023-03-01T01:18:55;9.18;;;6.85;;
69627;SDS011;56850;51.984;5.088;2023-03-01T01:21:23;8.35;;;6.47;;
69627;SDS011;56850;51.984;5.088;2023-03-01T01:23:51;11.85;;;6.80;;
69627;SDS011;56850;51.984;5.088;2023-03-01T01:26:22;9.13;;;6.63;;
69627;SDS011;56850;51.984;5.088;2023-03-01T01:28:51;9.20;;;6.40;;
69627;SDS011;56850;51.984;5.088;2023-03-01T01:31:19;10.20;;;6.90;;
69627;SDS011;56850;51.984;5.088;2023-03-01T01:33:47;9.45;;;6.55;;
69627;SDS011;56850;51.984;5.088;2023-03-01T01:36:14;10.93;;;7.25;;
69627;SDS011;56850;51.984;5.088;2023-03-01T01:38:41;10.00;;;6.97;;
69627;SDS011;56850;51.984;5.088;2023-03-01T01:41:09;11.67;;;6.43;;
69627;SDS011;56850;51.984;5.088;2023-03-01T01:43:38;8.82;;;6.65;;
69627;SDS011;56850;51.984;5.088;2023-03-01T01:46:20;9.25;;;6.97;;
69627;SDS011;56850;51.984;5.088;2023-03-01T01:49:00;9.15;;;6.68;;
69627;SDS011;56850;51.984;5.088;2023-03-01T01:51:38;9.50;;;6.95;;
69627;SDS011;56850;51.984;5.088;2023-03-01T01:54:13;8.80;;;6.87;;
69627;SDS011;56850;51.984;5.088;2023-03-01T01:56:48;9.85;;;7.03;;
69627;SDS011;56850;51.984;5.088;2023-03-01T01:59:18;11.82;;;7.05;;
69627;SDS011;56850;51.984;5.088;2023-03-01T02:01:51;10.00;;;7.70;;
69627;SDS011;56850;51.984;5.088;2023-03-01T02:04:19;11.20;;;7.30;;
69627;SDS011;56850;51.984;5.088;2023-03-01T02:07:09;10.03;;;7.67;;
69627;SDS011;56850;51.984;5.088;2023-03-01T02:09:39;9.82;;;6.82;;
69627;SDS011;56850;51.984;5.088;2023-03-01T02:12:11;9.88;;;7.28;;
69627;SDS011;56850;51.984;5.088;2023-03-01T02:14:40;10.15;;;7.60;;
69627;SDS011;56850;51.984;5.088;2023-03-01T02:17:07;13.05;;;7.82;;
69627;SDS011;56850;51.984;5.088;2023-03-01T02:22:24;12.60;;;8.55;;
69627;SDS011;56850;51.984;5.088;2023-03-01T02:27:29;13.75;;;8.60;;
69627;SDS011;56850;51.984;5.088;2023-03-01T02:30:21;12.25;;;7.95;;
69627;SDS011;56850;51.984;5.088;2023-03-01T02:32:49;10.50;;;8.07;;
69627;SDS011;56850;51.984;5.088;2023-03-01T02:35:16;12.05;;;8.60;;
69627;SDS011;56850;51.984;5.088;2023-03-01T02:37:45;12.57;;;8.75;;
69627;SDS011;56850;51.984;5.088;2023-03-01T02:40:15;14.10;;;8.48;;
69627;SDS011;56850;51.984;5.088;2023-03-01T02:42:52;12.93;;;8.57;;
69627;SDS011;56850;51.984;5.088;2023-03-01T02:45:22;12.67;;;9.30;;
69627;SDS011;56850;51.984;5.088;2023-03-01T02:47:49;13.00;;;9.15;;
69627;SDS011;56850;51.984;5.088;2023-03-01T02:53:01;11.38;;;8.85;;
69627;SDS011;56850;51.984;5.088;2023-03-01T02:55:36;15.15;;;9.07;;
69627;SDS011;56850;51.984;5.088;2023-03-01T02:58:05;10.93;;;8.03;;
69627;SDS011;56850;51.984;5.088;2023-03-01T03:00:35;16.25;;;9.98;;
69627;SDS011;56850;51.984;5.088;2023-03-01T03:03:06;12.43;;;8.65;;
69627;SDS011;56850;51.984;5.088;2023-03-01T03:05:34;12.95;;;9.60;;
69627;SDS011;56850;51.984;5.088;2023-03-01T03:08:02;12.93;;;8.93;;
69627;SDS011;56850;51.984;5.088;2023-03-01T03:10:35;13.40;;;9.20;;
69627;SDS011;56850;51.984;5.088;2023-03-01T03:13:05;14.07;;;9.85;;
69627;SDS011;56850;51.984;5.088;2023-03-01T03:15:34;13.55;;;9.23;;
69627;SDS011;56850;51.984;5.088;2023-03-01T03:18:06;13.07;;;9.68;;
69627;SDS011;56850;51.984;5.088;2023-03-01T03:20:35;13.95;;;9.18;;
69627;SDS011;56850;51.984;5.088;2023-03-01T03:23:04;16.53;;;9.50;;
69627;SDS011;56850;51.984;5.088;2023-03-01T03:25:30;11.77;;;9.73;;
69627;SDS011;56850;51.984;5.088;2023-03-01T03:27:58;14.00;;;9.57;;
69627;SDS011;56850;51.984;5.088;2023-03-01T03:30:26;13.05;;;9.25;;
69627;SDS011;56850;51.984;5.088;2023-03-01T03:32:55;14.73;;;9.25;;
69627;SDS011;56850;51.984;5.088;2023-03-01T03:35:27;13.30;;;9.60;;
69627;SDS011;56850;51.984;5.088;2023-03-01T03:38:00;14.57;;;9.75;;
69627;SDS011;56850;51.984;5.088;2023-03-01T03:42:56;14.32;;;9.52;;
69627;SDS011;56850;51.984;5.088;2023-03-01T03:45:26;14.10;;;9.65;;
69627;SDS011;56850;51.984;5.088;2023-03-01T03:47:53;14.53;;;9.63;;
69627;SDS011;56850;51.984;5.088;2023-03-01T03:50:20;14.00;;;9.90;;
69627;SDS011;56850;51.984;5.088;2023-03-01T03:52:47;13.20;;;9.50;;
69627;SDS011;56850;51.984;5.088;2023-03-01T03:55:13;14.43;;;10.23;;
69627;SDS011;56850;51.984;5.088;2023-03-01T03:57:46;13.75;;;9.80;;
69627;SDS011;56850;51.984;5.088;2023-03-01T04:00:18;12.27;;;9.07;;
69627;SDS011;56850;51.984;5.088;2023-03-01T04:02:47;12.35;;;9.27;;
69627;SDS011;56850;51.984;5.088;2023-03-01T04:05:15;13.95;;;9.60;;
69627;SDS011;56850;51.984;5.088;2023-03-01T04:07:44;13.25;;;10.25;;
69627;SDS011;56850;51.984;5.088;2023-03-01T04:10:13;14.88;;;9.85;;
69627;SDS011;56850;51.984;5.088;2023-03-01T04:12:42;13.20;;;10.20;;
69627;SDS011;56850;51.984;5.088;2023-03-01T04:15:10;12.93;;;9.38;;
69627;SDS011;56850;51.984;5.088;2023-03-01T04:17:40;13.32;;;9.80;;
69627;SDS011;56850;51.984;5.088;2023-03-01T04:20:16;14.40;;;9.20;;
69627;SDS011;56850;51.984;5.088;2023-03-01T04:22:47;13.82;;;9.85;;
69627;SDS011;56850;51.984;5.088;2023-03-01T04:25:13;14.43;;;9.07;;
69627;SDS011;56850;51.984;5.088;2023-03-01T04:27:40;15.15;;;9.48;;
69627;SDS011;56850;51.984;5.088;2023-03-01T04:30:07;14.15;;;9.52;;
69627;SDS011;56850;51.984;5.088;2023-03-01T04:32:35;13.07;;;10.10;;
69627;SDS011;56850;51.984;5.088;2023-03-01T04:35:04;15.73;;;9.95;;
69627;SDS011;56850;51.984;5.088;2023-03-01T04:37:31;18.73;;;10.23;;
69627;SDS011;56850;51.984;5.088;2023-03-01T04:39:58;14.00;;;9.07;;
69627;SDS011;56850;51.984;5.088;2023-03-01T04:42:25;15.73;;;9.80;;
69627;SDS011;56850;51.984;5.088;2023-03-01T04:44:52;15.27;;;9.80;;
69627;SDS011;56850;51.984;5.088;2023-03-01T04:47:19;13.98;;;9.55;;
69627;SDS011;56850;51.984;5.088;2023-03-01T04:49:46;17.43;;;10.30;;
69627;SDS011;56850;51.984;5.088;2023-03-01T04:52:13;16.77;;;9.55;;
69627;SDS011;56850;51.984;5.088;2023-03-01T04:54:40;15.00;;;9.70;;
69627;SDS011;56850;51.984;5.088;2023-03-01T04:57:07;16.42;;;9.82;;
69627;SDS011;56850;51.984;5.088;2023-03-01T04:59:34;12.75;;;9.80;;
69627;SDS011;56850;51.984;5.088;2023-03-01T05:02:02;13.13;;;9.30;;
69627;SDS011;56850;51.984;5.088;2023-03-01T05:04:30;13.63;;;9.57;;
69627;SDS011;56850;51.984;5.088;2023-03-01T05:06:57;12.13;;;9.57;;
69627;SDS011;56850;51.984;5.088;2023-03-01T05:09:24;12.52;;;9.65;;
69627;SDS011;56850;51.984;5.088;2023-03-01T05:11:51;12.30;;;8.95;;
69627;SDS011;56850;51.984;5.088;2023-03-01T05:14:18;18.67;;;9.10;;
69627;SDS011;56850;51.984;5.088;2023-03-01T05:16:45;15.60;;;9.40;;
69627;SDS011;56850;51.984;5.088;2023-03-01T05:19:12;13.65;;;9.65;;
69627;SDS011;56850;51.984;5.088;2023-03-01T05:21:42;14.95;;;9.77;;
69627;SDS011;56850;51.984;5.088;2023-03-01T05:24:28;13.32;;;9.52;;
69627;SDS011;56850;51.984;5.088;2023-03-01T05:26:56;13.20;;;8.93;;
69627;SDS011;56850;51.984;5.088;2023-03-01T05:29:24;12.15;;;8.63;;
69627;SDS011;56850;51.984;5.088;2023-03-01T05:31:56;16.67;;;9.30;;
69627;SDS011;56850;51.984;5.088;2023-03-01T05:34:25;16.05;;;9.07;;
69627;SDS011;56850;51.984;5.088;2023-03-01T05:36:57;13.07;;;9.15;;
69627;SDS011;56850;51.984;5.088;2023-03-01T05:39:25;15.13;;;8.60;;
69627;SDS011;56850;51.984;5.088;2023-03-01T05:41:54;10.75;;;8.57;;
69627;SDS011;56850;51.984;5.088;2023-03-01T05:44:22;16.25;;;9.27;;
69627;SDS011;56850;51.984;5.088;2023-03-01T05:46:50;14.60;;;9.18;;
69627;SDS011;56850;51.984;5.088;2023-03-01T05:49:17;12.70;;;8.52;;
69627;SDS011;56850;51.984;5.088;2023-03-01T05:51:48;11.57;;;8.07;;
69627;SDS011;56850;51.984;5.088;2023-03-01T05:54:17;14.05;;;8.48;;
69627;SDS011;56850;51.984;5.088;2023-03-01T05:56:44;13.32;;;8.70;;
69627;SDS011;56850;51.984;5.088;2023-03-01T05:59:11;12.73;;;7.85;;
69627;SDS011;56850;51.984;5.088;2023-03-01T06:01:40;12.60;;;8.43;;
69627;SDS011;56850;51.984;5.088;2023-03-01T06:04:07;12.40;;;7.90;;
69627;SDS011;56850;51.984;5.088;2023-03-01T06:06:34;11.60;;;8.23;;
69627;SDS011;56850;51.984;5.088;2023-03-01T06:09:06;12.02;;;7.78;;
69627;SDS011;56850;51.984;5.088;2023-03-01T06:11:35;13.27;;;8.02;;
69627;SDS011;56850;51.984;5.088;2023-03-01T06:14:03;12.35;;;7.97;;
69627;SDS011;56850;51.984;5.088;2023-03-01T06:16:30;10.13;;;6.67;;
69627;SDS011;56850;51.984;5.088;2023-03-01T06:18:58;9.70;;;6.85;;
69627;SDS011;56850;51.984;5.088;2023-03-01T06:21:24;9.32;;;7.00;;
69627;SDS011;56850;51.984;5.088;2023-03-01T06:23:51;11.40;;;7.50;;
69627;SDS011;56850;51.984;5.088;2023-03-01T06:26:18;8.82;;;6.85;;
69627;SDS011;56850;51.984;5.088;2023-03-01T06:28:45;10.87;;;7.23;;
69627;SDS011;56850;51.984;5.088;2023-03-01T06:31:12;10.90;;;6.97;;
69627;SDS011;56850;51.984;5.088;2023-03-01T06:33:39;10.25;;;7.28;;
69627;SDS011;56850;51.984;5.088;2023-03-01T06:36:06;8.95;;;7.00;;
69627;SDS011;56850;51.984;5.088;2023-03-01T06:38:33;10.48;;;6.60;;
69627;SDS011;56850;51.984;5.088;2023-03-01T06:41:00;10.13;;;6.43;;
69627;SDS011;56850;51.984;5.088;2023-03-01T06:43:28;10.40;;;7.38;;
69627;SDS011;56850;51.984;5.088;2023-03-01T06:45:55;11.43;;;7.47;;
69627;SDS011;56850;51.984;5.088;2023-03-01T06:48:22;10.43;;;6.82;;
69627;SDS011;56850;51.984;5.088;2023-03-01T06:50:49;13.15;;;7.38;;
69627;SDS011;56850;51.984;5.088;2023-03-01T06:53:16;12.60;;;7.37;;
69627;SDS011;56850;51.984;5.088;2023-03-01T06:55:43;12.25;;;7.43;;
69627;SDS011;56850;51.984;5.088;2023-03-01T06:58:10;12.98;;;7.30;;
69627;SDS011;56850;51.984;5.088;2023-03-01T07:00:37;11.63;;;7.55;;
69627;SDS011;56850;51.984;5.088;2023-03-01T07:03:07;14.45;;;7.90;;
69627;SDS011;56850;51.984;5.088;2023-03-01T07:05:35;12.83;;;8.53;;
69627;SDS011;56850;51.984;5.088;2023-03-01T07:08:02;11.65;;;7.32;;
69627;SDS011;56850;51.984;5.088;2023-03-01T07:10:29;15.00;;;9.45;;
69627;SDS011;56850;51.984;5.088;2023-03-01T07:12:56;16.17;;;8.65;;
69627;SDS011;56850;51.984;5.088;2023-03-01T07:15:25;16.60;;;8.23;;
69627;SDS011;56850;51.984;5.088;2023-03-01T07:17:52;21.17;;;9.47;;
69627;SDS011;56850;51.984;5.088;2023-03-01T07:20:19;12.07;;;7.63;;
69627;SDS011;56850;51.984;5.088;2023-03-01T07:22:52;12.43;;;8.25;;
69627;SDS011;56850;51.984;5.088;2023-03-01T07:25:19;11.80;;;7.55;;
69627;SDS011;56850;51.984;5.088;2023-03-01T07:27:53;12.60;;;7.88;;
69627;SDS011;56850;51.984;5.088;2023-03-01T07:30:20;13.83;;;7.60;;
69627;SDS011;56850;51.984;5.088;2023-03-01T07:32:47;12.43;;;7.18;;
69627;SDS011;56850;51.984;5.088;2023-03-01T07:35:14;12.77;;;7.30;;
69627;SDS011;56850;51.984;5.088;2023-03-01T07:37:41;13.70;;;7.57;;
69627;SDS011;56850;51.984;5.088;2023-03-01T07:40:09;15.73;;;7.53;;
69627;SDS011;56850;51.984;5.088;2023-03-01T07:42:37;11.93;;;7.13;;
69627;SDS011;56850;51.984;5.088;2023-03-01T07:45:04;10.50;;;7.80;;
69627;SDS011;56850;51.984;5.088;2023-03-01T07:47:32;10.32;;;7.35;;
69627;SDS011;56850;51.984;5.088;2023-03-01T07:49:59;16.40;;;7.18;;
69627;SDS011;56850;51.984;5.088;2023-03-01T07:52:28;11.27;;;7.53;;
69627;SDS011;56850;51.984;5.088;2023-03-01T07:54:55;13.40;;;7.20;;
69627;SDS011;56850;51.984;5.088;2023-03-01T07:57:23;11.55;;;7.38;;
69627;SDS011;56850;51.984;5.088;2023-03-01T07:59:50;12.20;;;7.43;;
69627;SDS011;56850;51.984;5.088;2023-03-01T08:02:17;13.43;;;7.45;;
69627;SDS011;56850;51.984;5.088;2023-03-01T08:04:44;12.70;;;7.20;;
69627;SDS011;56850;51.984;5.088;2023-03-01T08:07:11;13.47;;;7.53;;
69627;SDS011;56850;51.984;5.088;2023-03-01T08:09:37;14.63;;;7.20;;
69627;SDS011;56850;51.984;5.088;2023-03-01T08:12:04;11.18;;;7.00;;
69627;SDS011;56850;51.984;5.088;2023-03-01T08:14:32;12.43;;;6.80;;
69627;SDS011;56850;51.984;5.088;2023-03-01T08:16:59;12.38;;;7.25;;
69627;SDS011;56850;51.984;5.088;2023-03-01T08:19:26;14.77;;;6.90;;
69627;SDS011;56850;51.984;5.088;2023-03-01T08:21:54;13.30;;;6.90;;
69627;SDS011;56850;51.984;5.088;2023-03-01T08:24:24;12.73;;;6.65;;
69627;SDS011;56850;51.984;5.088;2023-03-01T08:26:51;11.63;;;6.45;;
69627;SDS011;56850;51.984;5.088;2023-03-01T08:29:19;11.88;;;7.20;;
69627;SDS011;56850;51.984;5.088;2023-03-01T08:31:46;12.00;;;7.00;;
69627;SDS011;56850;51.984;5.088;2023-03-01T08:34:15;10.35;;;6.05;;
69627;SDS011;56850;51.984;5.088;2023-03-01T08:36:43;10.65;;;7.38;;
69627;SDS011;56850;51.984;5.088;2023-03-01T08:39:12;10.45;;;6.65;;
69627;SDS011;56850;51.984;5.088;2023-03-01T08:41:42;10.00;;;6.13;;
69627;SDS011;56850;51.984;5.088;2023-03-01T08:44:12;7.93;;;6.10;;
69627;SDS011;56850;51.984;5.088;2023-03-01T08:46:40;11.07;;;6.53;;
69627;SDS011;56850;51.984;5.088;2023-03-01T08:49:09;8.90;;;6.07;;
69627;SDS011;56850;51.984;5.088;2023-03-01T08:51:40;11.23;;;6.22;;
69627;SDS011;56850;51.984;5.088;2023-03-01T08:54:10;11.13;;;6.32;;
69627;SDS011;56850;51.984;5.088;2023-03-01T08:56:42;9.87;;;5.70;;
69627;SDS011;56850;51.984;5.088;2023-03-01T08:59:09;8.80;;;6.05;;
69627;SDS011;56850;51.984;5.088;2023-03-01T09:01:37;8.38;;;5.80;;
69627;SDS011;56850;51.984;5.088;2023-03-01T09:04:04;12.23;;;5.40;;
69627;SDS011;56850;51.984;5.088;2023-03-01T09:06:35;7.97;;;5.70;;
69627;SDS011;56850;51.984;5.088;2023-03-01T09:09:02;8.63;;;5.07;;
69627;SDS011;56850;51.984;5.088;2023-03-01T09:11:30;8.20;;;5.20;;
69627;SDS011;56850;51.984;5.088;2023-03-01T09:13:57;10.00;;;5.72;;
69627;SDS011;56850;51.984;5.088;2023-03-01T09:16:24;10.27;;;4.97;;
69627;SDS011;56850;51.984;5.088;2023-03-01T09:18:52;8.43;;;5.20;;
69627;SDS011;56850;51.984;5.088;2023-03-01T09:21:21;7.03;;;5.03;;
69627;SDS011;56850;51.984;5.088;2023-03-01T09:24:06;6.57;;;4.72;;
69627;SDS011;56850;51.984;5.088;2023-03-01T09:26:42;7.20;;;5.03;;
69627;SDS011;56850;51.984;5.088;2023-03-01T09:29:14;7.72;;;4.68;;
69627;SDS011;56850;51.984;5.088;2023-03-01T09:31:42;8.75;;;5.35;;
69627;SDS011;56850;51.984;5.088;2023-03-01T09:34:09;8.63;;;5.40;;
69627;SDS011;56850;51.984;5.088;2023-03-01T09:36:38;7.15;;;5.20;;
69627;SDS011;56850;51.984;5.088;2023-03-01T09:39:04;8.98;;;5.57;;
69627;SDS011;56850;51.984;5.088;2023-03-01T09:41:53;8.15;;;5.28;;
69627;SDS011;56850;51.984;5.088;2023-03-01T09:44:32;7.13;;;4.70;;
69627;SDS011;56850;51.984;5.088;2023-03-01T09:47:20;7.60;;;5.40;;
69627;SDS011;56850;51.984;5.088;2023-03-01T09:50:33;8.60;;;4.53;;
69627;SDS011;56850;51.984;5.088;2023-03-01T09:52:46;6.07;;;4.72;;
69627;SDS011;56850;51.984;5.088;2023-03-01T09:55:27;7.95;;;5.05;;
69627;SDS011;56850;51.984;5.088;2023-03-01T10:00:47;6.67;;;4.27;;
69627;SDS011;56850;51.984;5.088;2023-03-01T10:03:35;7.45;;;4.75;;
69627;SDS011;56850;51.984;5.088;2023-03-01T10:06:23;9.95;;;4.70;;
69627;SDS011;56850;51.984;5.088;2023-03-01T10:09:05;7.07;;;4.50;;
69627;SDS011;56850;51.984;5.088;2023-03-01T10:11:39;8.13;;;4.05;;
69627;SDS011;56850;51.984;5.088;2023-03-01T10:14:31;5.03;;;3.50;;
69627;SDS011;56850;51.984;5.088;2023-03-01T10:19:34;6.88;;;3.53;;
69627;SDS011;56850;51.984;5.088;2023-03-01T10:22:15;5.80;;;3.83;;
69627;SDS011;56850;51.984;5.088;2023-03-01T10:24:50;6.38;;;3.90;;
69627;SDS011;56850;51.984;5.088;2023-03-01T10:27:26;5.90;;;4.70;;
69627;SDS011;56850;51.984;5.088;2023-03-01T10:32:46;6.55;;;3.95;;
69627;SDS011;56850;51.984;5.088;2023-03-01T10:35:23;7.70;;;4.13;;
69627;SDS011;56850;51.984;5.088;2023-03-01T10:40:36;6.37;;;3.50;;
69627;SDS011;56850;51.984;5.088;2023-03-01T10:43:16;5.63;;;3.70;;
69627;SDS011;56850;51.984;5.088;2023-03-01T10:45:44;5.63;;;3.20;;
69627;SDS011;56850;51.984;5.088;2023-03-01T10:48:12;4.65;;;3.47;;
69627;SDS011;56850;51.984;5.088;2023-03-01T10:50:43;6.45;;;3.95;;
69627;SDS011;56850;51.984;5.088;2023-03-01T10:53:47;9.47;;;4.67;;
69627;SDS011;56850;51.984;5.088;2023-03-01T10:56:12;6.10;;;3.95;;
69627;SDS011;56850;51.984;5.088;2023-03-01T10:58:59;6.78;;;3.88;;
69627;SDS011;56850;51.984;5.088;2023-03-01T11:01:34;4.47;;;3.47;;
69627;SDS011;56850;51.984;5.088;2023-03-01T11:04:03;6.80;;;4.10;;
69627;SDS011;56850;51.984;5.088;2023-03-01T11:06:38;7.23;;;3.80;;
69627;SDS011;56850;51.984;5.088;2023-03-01T11:11:39;5.03;;;3.78;;
69627;SDS011;56850;51.984;5.088;2023-03-01T11:19:41;6.03;;;3.93;;
69627;SDS011;56850;51.984;5.088;2023-03-01T11:22:19;12.27;;;3.80;;
69627;SDS011;56850;51.984;5.088;2023-03-01T11:24:49;5.50;;;4.10;;
69627;SDS011;56850;51.984;5.088;2023-03-01T11:27:36;5.53;;;3.42;;
69627;SDS011;56850;51.984;5.088;2023-03-01T11:32:41;7.40;;;3.97;;
69627;SDS011;56850;51.984;5.088;2023-03-01T11:35:16;7.07;;;3.92;;
69627;SDS011;56850;51.984;5.088;2023-03-01T11:43:43;5.40;;;3.72;;
69627;SDS011;56850;51.984;5.088;2023-03-01T11:52:01;6.40;;;3.97;;
69627;SDS011;56850;51.984;5.088;2023-03-01T11:57:44;4.97;;;3.42;;
69627;SDS011;56850;51.984;5.088;2023-03-01T12:00:30;7.70;;;4.13;;
69627;SDS011;56850;51.984;5.088;2023-03-01T12:25:45;5.30;;;3.75;;
69627;SDS011;56850;51.984;5.088;2023-03-01T12:46:14;4.47;;;2.95;;
69627;SDS011;56850;51.984;5.088;2023-03-01T12:49:07;5.25;;;3.30;;
69627;SDS011;56850;51.984;5.088;2023-03-01T12:54:36;5.05;;;3.55;;
69627;SDS011;56850;51.984;5.088;2023-03-01T12:57:09;5.20;;;3.73;;
69627;SDS011;56850;51.984;5.088;2023-03-01T13:02:52;6.45;;;3.63;;
69627;SDS011;56850;51.984;5.088;2023-03-01T13:05:52;6.07;;;3.63;;
69627;SDS011;56850;51.984;5.088;2023-03-01T13:08:48;5.68;;;3.60;;
69627;SDS011;56850;51.984;5.088;2023-03-01T13:11:33;6.53;;;3.30;;
69627;SDS011;56850;51.984;5.088;2023-03-01T13:17:29;4.97;;;3.85;;
69627;SDS011;56850;51.984;5.088;2023-03-01T13:19:57;6.40;;;3.38;;
69627;SDS011;56850;51.984;5.088;2023-03-01T13:22:25;7.05;;;3.70;;
69627;SDS011;56850;51.984;5.088;2023-03-01T13:25:10;4.57;;;3.73;;
69627;SDS011;56850;51.984;5.088;2023-03-01T13:27:40;4.65;;;3.70;;
69627;SDS011;56850;51.984;5.088;2023-03-01T13:30:37;6.32;;;4.47;;
69627;SDS011;56850;51.984;5.088;2023-03-01T13:33:32;7.50;;;3.80;;
69627;SDS011;56850;51.984;5.088;2023-03-01T13:35:53;6.00;;;3.90;;
69627;SDS011;56850;51.984;5.088;2023-03-01T13:41:15;6.07;;;3.75;;
69627;SDS011;56850;51.984;5.088;2023-03-01T13:44:02;4.32;;;3.17;;
69627;SDS011;56850;51.984;5.088;2023-03-01T13:46:39;7.22;;;4.18;;
69627;SDS011;56850;51.984;5.088;2023-03-01T13:49:09;5.47;;;3.78;;
69627;SDS011;56850;51.984;5.088;2023-03-01T13:51:42;5.97;;;3.00;;
69627;SDS011;56850;51.984;5.088;2023-03-01T13:54:13;5.45;;;3.95;;
69627;SDS011;56850;51.984;5.088;2023-03-01T13:56:42;7.13;;;3.90;;
69627;SDS011;56850;51.984;5.088;2023-03-01T13:59:14;3.67;;;3.20;;
69627;SDS011;56850;51.984;5.088;2023-03-01T14:01:53;5.80;;;3.78;;
69627;SDS011;56850;51.984;5.088;2023-03-01T14:04:22;5.57;;;3.93;;
69627;SDS011;56850;51.984;5.088;2023-03-01T14:07:10;6.18;;;3.90;;
69627;SDS011;56850;51.984;5.088;2023-03-01T14:09:51;5.70;;;4.10;;
69627;SDS011;56850;51.984;5.088;2023-03-01T14:15:34;5.60;;;3.95;;
69627;SDS011;56850;51.984;5.088;2023-03-01T14:20:41;8.55;;;3.75;;
69627;SDS011;56850;51.984;5.088;2023-03-01T14:23:12;4.90;;;3.25;;
69627;SDS011;56850;51.984;5.088;2023-03-01T14:25:52;3.85;;;3.30;;
69627;SDS011;56850;51.984;5.088;2023-03-01T14:30:56;6.60;;;3.70;;
69627;SDS011;56850;51.984;5.088;2023-03-01T14:33:33;8.70;;;4.13;;
69627;SDS011;56850;51.984;5.088;2023-03-01T14:36:03;6.72;;;4.20;;
69627;SDS011;56850;51.984;5.088;2023-03-01T14:38:41;5.78;;;4.20;;
69627;SDS011;56850;51.984;5.088;2023-03-01T14:41:14;6.45;;;3.72;;
69627;SDS011;56850;51.984;5.088;2023-03-01T14:43:45;5.33;;;3.43;;
69627;SDS011;56850;51.984;5.088;2023-03-01T14:46:28;4.47;;;3.80;;
69627;SDS011;56850;51.984;5.088;2023-03-01T14:49:07;7.05;;;3.30;;
69627;SDS011;56850;51.984;5.088;2023-03-01T14:51:39;7.07;;;3.20;;
69627;SDS011;56850;51.984;5.088;2023-03-01T14:54:18;4.93;;;3.08;;
69627;SDS011;56850;51.984;5.088;2023-03-01T14:57:05;5.67;;;3.43;;
69627;SDS011;56850;51.984;5.088;2023-03-01T14:59:33;6.00;;;3.92;;
69627;SDS011;56850;51.984;5.088;2023-03-01T15:02:00;10.73;;;3.63;;
69627;SDS011;56850;51.984;5.088;2023-03-01T15:04:28;6.00;;;3.70;;
69627;SDS011;56850;51.984;5.088;2023-03-01T15:06:56;5.40;;;3.70;;
69627;SDS011;56850;51.984;5.088;2023-03-01T15:09:32;4.90;;;3.77;;
69627;SDS011;56850;51.984;5.088;2023-03-01T15:16:03;6.80;;;4.28;;
69627;SDS011;56850;51.984;5.088;2023-03-01T15:18:33;5.00;;;3.58;;
69627;SDS011;56850;51.984;5.088;2023-03-01T15:21:05;5.20;;;3.58;;
69627;SDS011;56850;51.984;5.088;2023-03-01T15:23:34;4.90;;;3.90;;
69627;SDS011;56850;51.984;5.088;2023-03-01T15:26:03;6.10;;;4.10;;
69627;SDS011;56850;51.984;5.088;2023-03-01T15:28:30;7.63;;;3.60;;
69627;SDS011;56850;51.984;5.088;2023-03-01T15:31:14;6.05;;;3.90;;
69627;SDS011;56850;51.984;5.088;2023-03-01T15:33:49;6.32;;;3.58;;
69627;SDS011;56850;51.984;5.088;2023-03-01T15:39:03;5.57;;;3.70;;
69627;SDS011;56850;51.984;5.088;2023-03-01T15:41:37;6.47;;;4.00;;
69627;SDS011;56850;51.984;5.088;2023-03-01T15:44:32;4.95;;;4.03;;
69627;SDS011;56850;51.984;5.088;2023-03-01T15:47:22;6.55;;;4.05;;
69627;SDS011;56850;51.984;5.088;2023-03-01T15:49:55;5.13;;;3.70;;
69627;SDS011;56850;51.984;5.088;2023-03-01T15:52:25;5.18;;;3.50;;
69627;SDS011;56850;51.984;5.088;2023-03-01T15:55:03;6.03;;;3.92;;
69627;SDS011;56850;51.984;5.088;2023-03-01T15:57:33;5.63;;;4.22;;
69627;SDS011;56850;51.984;5.088;2023-03-01T16:00:00;6.38;;;4.35;;
69627;SDS011;56850;51.984;5.088;2023-03-01T16:02:30;6.87;;;4.10;;
69627;SDS011;56850;51.984;5.088;2023-03-01T16:04:56;6.53;;;4.32;;
69627;SDS011;56850;51.984;5.088;2023-03-01T16:07:23;6.65;;;4.63;;
69627;SDS011;56850;51.984;5.088;2023-03-01T16:09:53;6.60;;;4.20;;
69627;SDS011;56850;51.984;5.088;2023-03-01T16:12:19;6.80;;;4.35;;
69627;SDS011;56850;51.984;5.088;2023-03-01T16:14:47;8.53;;;4.13;;
69627;SDS011;56850;51.984;5.088;2023-03-01T16:17:14;10.63;;;4.43;;
69627;SDS011;56850;51.984;5.088;2023-03-01T16:19:41;12.48;;;4.13;;
69627;SDS011;56850;51.984;5.088;2023-03-01T16:22:09;6.80;;;4.35;;
69627;SDS011;56850;51.984;5.088;2023-03-01T16:24:36;6.20;;;3.90;;
69627;SDS011;56850;51.984;5.088;2023-03-01T16:27:03;5.97;;;3.90;;
69627;SDS011;56850;51.984;5.088;2023-03-01T16:29:30;7.30;;;4.05;;
69627;SDS011;56850;51.984;5.088;2023-03-01T16:31:59;5.35;;;3.20;;
69627;SDS011;56850;51.984;5.088;2023-03-01T16:34:28;4.88;;;3.75;;
69627;SDS011;56850;51.984;5.088;2023-03-01T16:36:55;5.45;;;4.30;;
69627;SDS011;56850;51.984;5.088;2023-03-01T16:39:22;6.90;;;3.20;;
69627;SDS011;56850;51.984;5.088;2023-03-01T16:41:48;6.28;;;4.07;;
69627;SDS011;56850;51.984;5.088;2023-03-01T16:44:15;6.18;;;3.40;;
69627;SDS011;56850;51.984;5.088;2023-03-01T16:46:42;5.18;;;3.72;;
69627;SDS011;56850;51.984;5.088;2023-03-01T16:49:09;8.02;;;3.92;;
69627;SDS011;56850;51.984;5.088;2023-03-01T16:51:36;5.10;;;3.70;;
69627;SDS011;56850;51.984;5.088;2023-03-01T16:54:03;6.40;;;4.18;;
69627;SDS011;56850;51.984;5.088;2023-03-01T16:56:31;5.05;;;3.70;;
69627;SDS011;56850;51.984;5.088;2023-03-01T16:59:00;5.15;;;4.00;;
69627;SDS011;56850;51.984;5.088;2023-03-01T17:01:31;7.40;;;4.45;;